Time;durP1;ratioP1;P1;durP2;ratioP2;P2;SDS_P1;SDS_P2;PMS_P1;PMS_P2;Temp;Humidity;BMP_temperature;BMP_pressure;BME280_temperature;BME280_humidity;BME280_pressure;Samples;Min_cycle;Max_cycle;Signal;HPM_P1;HPM_P2
2021/07/13 00:00:12;;;;;;;7.05;5.13;;;;;;;20.08;76.50;98195.53;3564943;40;20061;-75
2021/07/13 00:02:40;;;;;;;8.77;4.82;;;;;;;20.08;76.47;98196.34;3564584;40;20147;-75
2021/07/13 00:05:12;;;;;;;6.45;4.88;;;;;;;20.09;76.32;98194.47;3565236;40;20032;-76
2021/07/13 00:07:41;;;;;;;5.25;4.75;;;;;;;20.09;75.99;98184.56;3565362;40;20049;-75
2021/07/13 00:10:10;;;;;;;5.50;5.00;;;;;;;20.06;76.44;98190.44;3572396;40;20045;-75
2021/07/13 00:12:38;;;;;;;5.22;4.72;;;;;;;20.04;76.59;98187.22;3565733;40;20054;-75
2021/07/13 00:15:11;;;;;;;5.30;4.57;;;;;;;20.00;76.49;98188.81;3565544;40;20114;-74
2021/07/13 00:17:39;;;;;;;5.38;4.88;;;;;;;19.99;76.55;98190.72;3563996;40;20112;-73
2021/07/13 00:20:08;;;;;;;5.80;5.30;;;;;;;20.00;76.73;98192.34;3572248;40;20061;-74
2021/07/13 00:22:36;;;;;;;5.93;5.30;;;;;;;19.96;76.58;98191.25;3600569;23;20115;-71
2021/07/13 00:25:05;;;;;;;5.40;4.90;;;;;;;19.99;76.38;98188.03;3560333;40;20395;-73
2021/07/13 00:27:33;;;;;;;6.00;5.22;;;;;;;19.98;76.90;98194.47;3561181;40;20354;-73
2021/07/13 00:30:01;;;;;;;5.28;4.78;;;;;;;20.01;76.65;98190.47;3559970;40;20022;-74
2021/07/13 00:32:30;;;;;;;5.10;4.53;;;;;;;20.06;76.88;98197.69;3561490;40;20041;-73
2021/07/13 00:34:58;;;;;;;5.47;4.57;;;;;;;20.07;76.60;98199.28;3561109;40;20085;-73
2021/07/13 00:37:26;;;;;;;5.68;5.25;;;;;;;20.06;76.51;98190.44;3560144;40;20070;-73
2021/07/13 00:39:53;;;;;;;5.78;5.13;;;;;;;20.06;76.69;98195.00;3560022;40;20324;-72
2021/07/13 00:42:21;;;;;;;6.80;4.63;;;;;;;20.09;76.16;98184.56;3562537;40;20030;-73
2021/07/13 00:44:49;;;;;;;5.78;5.03;;;;;;;20.11;76.49;98185.06;3563426;40;20516;-73
2021/07/13 00:47:20;;;;;;;5.85;5.35;;;;;;;20.13;76.46;98184.81;3563613;40;20030;-72
2021/07/13 00:49:50;;;;;;;5.88;5.35;;;;;;;20.12;76.38;98177.81;3563977;40;20032;-72
2021/07/13 00:52:18;;;;;;;5.65;4.72;;;;;;;20.08;76.67;98180.25;3565252;40;20031;-72
2021/07/13 00:54:49;;;;;;;5.97;5.47;;;;;;;20.11;76.52;98176.22;3561984;40;20042;-72
2021/07/13 00:57:19;;;;;;;6.18;5.57;;;;;;;20.06;76.28;98184.28;3560428;40;20387;-73
2021/07/13 00:59:47;;;;;;;6.00;5.22;;;;;;;19.98;76.67;98186.41;3560073;40;20030;-72
2021/07/13 01:02:18;;;;;;;7.75;5.32;;;;;;;19.94;76.97;98181.88;3559880;40;20026;-72
2021/07/13 01:04:50;;;;;;;6.18;5.50;;;;;;;19.86;76.99;98177.84;3560152;40;20050;-73
2021/07/13 01:07:25;;;;;;;7.57;5.88;;;;;;;19.85;77.26;98178.13;3561105;40;20022;-72
2021/07/13 01:10:01;;;;;;;6.93;5.35;;;;;;;19.86;77.13;98177.84;3560637;40;20030;-72
2021/07/13 01:12:40;;;;;;;7.60;5.68;;;;;;;19.87;77.20;98173.28;3560609;40;20038;-72
2021/07/13 01:15:10;;;;;;;6.13;5.53;;;;;;;19.89;77.18;98169.25;3560195;40;20112;-72
2021/07/13 01:17:42;;;;;;;6.80;6.20;;;;;;;19.87;77.45;98165.22;3560521;40;20073;-72
2021/07/13 01:20:50;;;;;;;6.50;5.90;;;;;;;19.85;77.42;98167.38;3559850;40;20030;-72
2021/07/13 01:23:25;;;;;;;6.75;6.05;;;;;;;19.83;77.44;98172.19;3529576;40;20047;-73
2021/07/13 01:26:02;;;;;;;7.43;6.25;;;;;;;19.81;77.64;98169.00;3560190;40;20053;-73
2021/07/13 01:28:36;;;;;;;6.15;5.55;;;;;;;19.78;77.76;98171.13;3558716;40;20383;-74
2021/07/13 01:31:08;;;;;;;6.18;5.25;;;;;;;19.77;77.61;98166.84;3558698;40;20042;-72
2021/07/13 01:33:38;;;;;;;5.40;4.82;;;;;;;19.78;77.18;98170.31;3559992;40;20407;-73
2021/07/13 01:36:09;;;;;;;5.72;5.22;;;;;;;19.81;76.92;98172.47;3560428;40;20478;-73
2021/07/13 01:38:40;;;;;;;6.50;5.53;;;;;;;19.83;76.91;98164.97;3559404;40;20085;-73
2021/07/13 01:41:11;;;;;;;6.55;5.95;;;;;;;19.81;76.74;98169.78;3559472;40;20045;-72
2021/07/13 01:43:44;;;;;;;6.47;5.53;;;;;;;19.74;76.85;98167.38;3560491;40;20046;-73
2021/07/13 01:46:13;;;;;;;5.60;4.72;;;;;;;19.69;77.29;98175.41;3559251;40;20077;-72
2021/07/13 01:48:43;;;;;;;6.20;5.40;;;;;;;19.72;76.78;98174.88;3560494;40;20049;-74
2021/07/13 01:51:12;;;;;;;11.30;6.38;;;;;;;19.72;76.71;98172.22;3561264;40;20038;-75
2021/07/13 01:53:41;;;;;;;6.32;5.65;;;;;;;19.71;77.13;98167.91;3560810;40;20042;-74
2021/07/13 01:56:10;;;;;;;6.40;5.50;;;;;;;19.71;77.03;98165.22;3561312;40;20090;-74
2021/07/13 01:58:39;;;;;;;7.47;5.57;;;;;;;19.71;77.14;98161.72;3560827;40;20022;-75
2021/07/13 02:01:12;;;;;;;5.72;5.15;;;;;;;19.72;77.19;98152.63;3561126;40;20420;-73
2021/07/13 02:03:41;;;;;;;6.60;6.00;;;;;;;19.72;77.35;98168.72;3560154;40;20090;-74
2021/07/13 02:06:09;;;;;;;6.75;5.90;;;;;;;19.67;77.39;98172.19;3560419;40;20497;-73
2021/07/13 02:08:38;;;;;;;6.43;5.80;;;;;;;19.65;77.20;98173.53;3559342;40;20061;-72
2021/07/13 02:11:07;;;;;;;6.38;5.78;;;;;;;19.61;77.24;98177.78;3560892;40;20103;-75
2021/07/13 02:13:34;;;;;;;7.28;6.57;;;;;;;19.58;77.57;98167.59;3561039;40;20056;-74
2021/07/13 02:16:03;;;;;;;7.63;6.75;;;;;;;19.57;77.29;98180.19;3561352;40;20057;-73
2021/07/13 02:18:33;;;;;;;5.78;5.28;;;;;;;19.52;77.98;98182.88;3561340;40;20078;-73
2021/07/13 02:21:01;;;;;;;8.43;6.45;;;;;;;19.52;78.05;98185.56;3561804;40;20052;-72
2021/07/13 02:23:29;;;;;;;6.88;6.18;;;;;;;19.55;77.84;98190.38;3561817;40;20090;-73
2021/07/13 02:26:02;;;;;;;7.95;6.10;;;;;;;19.62;77.81;98188.28;3561852;40;20443;-73
2021/07/13 02:28:34;;;;;;;7.88;6.82;;;;;;;19.64;77.85;98196.88;3561724;40;20045;-74
2021/07/13 02:31:07;;;;;;;7.60;6.90;;;;;;;19.63;77.93;98194.44;3560680;40;20042;-73
2021/07/13 02:33:43;;;;;;;7.45;6.75;;;;;;;19.65;77.42;98195.78;3561491;40;20406;-73
2021/07/13 02:36:14;;;;;;;8.52;6.85;;;;;;;19.61;77.43;98181.31;3560480;40;20401;-72
2021/07/13 02:38:43;;;;;;;7.47;6.78;;;;;;;19.60;77.94;98179.69;3561392;40;20056;-73
2021/07/13 02:41:11;;;;;;;6.97;6.38;;;;;;;19.61;77.58;98177.78;3561451;40;20058;-73
2021/07/13 02:43:39;;;;;;;7.63;6.90;;;;;;;19.60;77.70;98174.31;3560437;40;20046;-73
2021/07/13 02:46:07;;;;;;;9.18;8.38;;;;;;;19.52;77.82;98161.44;3560205;40;20073;-73
2021/07/13 02:48:38;;;;;;;10.23;8.45;;;;;;;19.39;78.05;98159.25;3560154;40;20053;-72
2021/07/13 02:51:10;;;;;;;9.85;8.95;;;;;;;19.24;78.79;98152.78;3560608;40;20128;-73
2021/07/13 02:53:39;;;;;;;9.93;8.93;;;;;;;19.14;79.34;98152.75;3560491;40;20065;-74
2021/07/13 02:56:08;;;;;;;10.30;9.40;;;;;;;19.13;80.10;98161.06;3559736;40;20030;-73
2021/07/13 02:58:36;;;;;;;10.05;8.80;;;;;;;19.16;80.04;98166.72;3561070;40;20050;-73
2021/07/13 03:01:07;;;;;;;10.07;8.55;;;;;;;19.14;80.07;98158.13;3560676;40;20054;-72
2021/07/13 03:03:37;;;;;;;8.90;8.00;;;;;;;19.17;80.35;98148.75;3560759;40;20058;-73
2021/07/13 03:06:05;;;;;;;8.25;7.45;;;;;;;19.19;79.74;98131.34;3561347;40;20037;-73
2021/07/13 03:08:34;;;;;;;9.88;8.98;;;;;;;19.11;80.15;98123.03;3561099;40;20392;-73
2021/07/13 03:11:03;;;;;;;8.82;8.00;;;;;;;19.11;80.40;98115.81;3560638;40;20064;-73
2021/07/13 03:13:32;;;;;;;9.02;8.10;;;;;;;19.16;80.29;98125.72;3560088;40;20343;-73
2021/07/13 03:15:59;;;;;;;8.88;8.00;;;;;;;19.16;80.13;98136.44;3569354;40;20122;-73
2021/07/13 03:18:31;;;;;;;8.98;7.97;;;;;;;19.20;80.27;98141.00;3561983;40;20269;-73
2021/07/13 03:21:03;;;;;;;9.88;8.43;;;;;;;19.23;80.28;98139.69;3561674;40;20112;-73
2021/07/13 03:23:36;;;;;;;9.27;8.30;;;;;;;19.19;80.56;98128.69;3561461;40;20084;-73
2021/07/13 03:26:04;;;;;;;9.15;7.50;;;;;;;19.23;80.71;98127.06;3560764;40;20374;-74
2021/07/13 03:28:33;;;;;;;8.02;7.32;;;;;;;19.33;80.40;98130.84;3560823;40;20131;-73
2021/07/13 03:31:01;;;;;;;9.55;8.18;;;;;;;19.41;79.79;98116.91;3569010;40;20070;-73
2021/07/13 03:33:30;;;;;;;8.98;8.10;;;;;;;19.41;79.51;98109.69;3559471;40;20030;-73
2021/07/13 03:35:59;;;;;;;10.50;8.90;;;;;;;19.47;79.50;98099.75;3558835;40;20053;-73
2021/07/13 03:38:28;;;;;;;10.05;8.75;;;;;;;19.41;79.42;98106.19;3561506;40;20037;-73
2021/07/13 03:40:56;;;;;;;10.38;8.40;;;;;;;19.41;80.17;98108.88;3560350;40;20030;-73
2021/07/13 03:43:26;;;;;;;9.25;7.82;;;;;;;19.43;79.47;98114.75;3559641;40;20057;-74
2021/07/13 03:45:57;;;;;;;9.68;8.68;;;;;;;19.43;79.66;98112.06;3559952;40;20030;-74
2021/07/13 03:48:25;;;;;;;9.48;8.43;;;;;;;19.41;79.32;98107.00;3560943;40;20605;-74
2021/07/13 03:50:53;;;;;;;9.18;8.35;;;;;;;19.45;79.48;98092.00;3560796;40;20036;-73
2021/07/13 03:53:21;;;;;;;10.48;9.32;;;;;;;19.43;79.63;98087.97;3561143;40;20042;-74
2021/07/13 03:55:50;;;;;;;10.60;9.55;;;;;;;19.34;79.85;98068.94;3561005;40;20387;-73
2021/07/13 03:58:18;;;;;;;11.45;9.48;;;;;;;19.28;80.25;98072.69;3561054;40;20050;-73
2021/07/13 04:00:45;;;;;;;10.27;9.15;;;;;;;19.20;80.60;98071.34;3560874;40;20050;-73
2021/07/13 04:03:13;;;;;;;11.35;9.45;;;;;;;19.21;80.86;98064.91;3560765;40;20030;-74
2021/07/13 04:05:43;;;;;;;11.80;10.70;;;;;;;19.17;80.31;98053.09;3568289;40;20056;-74
2021/07/13 04:08:11;;;;;;;10.23;9.32;;;;;;;19.08;80.47;98054.72;3560817;40;20159;-74
2021/07/13 04:10:38;;;;;;;9.52;8.63;;;;;;;19.06;80.83;98064.88;3561646;40;20061;-73
2021/07/13 04:13:07;;;;;;;10.23;9.32;;;;;;;19.15;80.85;98074.00;3562591;40;20034;-74
2021/07/13 04:15:35;;;;;;;8.90;8.05;;;;;;;19.21;80.83;98078.28;3561490;40;20041;-74
2021/07/13 04:18:03;;;;;;;9.35;8.45;;;;;;;19.26;80.26;98080.97;3562159;40;20082;-73
2021/07/13 04:20:31;;;;;;;9.50;8.57;;;;;;;19.28;80.22;98089.56;3561939;40;20050;-73
2021/07/13 04:23:00;;;;;;;11.60;9.07;;;;;;;19.28;79.80;98100.28;3562760;40;20046;-74
2021/07/13 04:25:27;;;;;;;9.45;8.65;;;;;;;19.28;80.12;98102.97;3563548;40;20029;-74
2021/07/13 04:27:55;;;;;;;9.90;8.80;;;;;;;19.34;79.81;98119.03;3561409;40;20026;-73
2021/07/13 04:30:24;;;;;;;9.82;8.68;;;;;;;19.36;79.86;98114.25;3559609;40;20297;-73
2021/07/13 04:32:52;;;;;;;10.10;9.20;;;;;;;19.38;79.69;98117.44;3565152;40;20044;-73
2021/07/13 04:35:20;;;;;;;11.77;10.57;;;;;;;19.37;79.97;98118.53;3566930;40;20053;-72
2021/07/13 04:37:48;;;;;;;9.32;8.43;;;;;;;19.37;79.68;98119.31;3568334;40;20049;-73
2021/07/13 04:40:15;;;;;;;7.93;7.18;;;;;;;19.32;79.88;98118.53;3568640;40;20029;-74
2021/07/13 04:42:43;;;;;;;9.32;8.45;;;;;;;19.30;79.89;98116.88;3565111;40;20066;-73
2021/07/13 04:45:11;;;;;;;10.18;7.22;;;;;;;19.29;79.79;98117.16;3564650;40;20423;-73
2021/07/13 04:47:41;;;;;;;8.85;8.00;;;;;;;19.24;79.92;98111.81;3564479;40;20404;-72
2021/07/13 04:50:10;;;;;;;7.95;7.13;;;;;;;19.22;79.98;98104.00;3564805;40;20096;-73
2021/07/13 04:52:37;;;;;;;8.65;7.47;;;;;;;19.25;80.12;98108.03;3571708;40;20311;-73
2021/07/13 04:55:07;;;;;;;8.70;7.70;;;;;;;19.29;79.86;98101.88;3562761;40;20038;-73
2021/07/13 04:57:34;;;;;;;8.73;7.85;;;;;;;19.31;79.51;98107.00;3561397;40;20289;-73
2021/07/13 05:00:02;;;;;;;8.95;7.70;;;;;;;19.37;79.94;98105.91;3560029;40;20034;-73
2021/07/13 05:02:30;;;;;;;7.97;6.97;;;;;;;19.35;79.56;98117.97;3560714;40;20038;-73
2021/07/13 05:04:59;;;;;;;8.32;7.50;;;;;;;19.25;79.57;98111.53;3560380;40;20339;-73
2021/07/13 05:07:27;;;;;;;9.30;8.43;;;;;;;19.29;79.42;98103.75;3563291;40;20320;-73
2021/07/13 05:09:54;;;;;;;11.13;10.10;;;;;;;19.36;79.43;98106.19;3564373;40;20045;-73
2021/07/13 05:12:22;;;;;;;10.95;7.28;;;;;;;19.32;79.34;98094.41;3564967;40;20032;-73
2021/07/13 05:14:50;;;;;;;10.10;7.53;;;;;;;19.36;79.45;98087.44;3563273;40;20673;-73
2021/07/13 05:17:17;;;;;;;9.35;8.13;;;;;;;19.39;79.19;98090.41;3561848;40;20061;-73
2021/07/13 05:19:48;;;;;;;9.18;7.95;;;;;;;19.44;78.93;98082.34;3562299;40;20063;-73
2021/07/13 05:22:19;;;;;;;7.90;7.20;;;;;;;19.39;78.69;98076.16;3563291;40;20064;-73
2021/07/13 05:24:46;;;;;;;12.27;8.32;;;;;;;19.39;78.93;98070.81;3563364;40;20148;-73
2021/07/13 05:27:17;;;;;;;8.85;8.05;;;;;;;19.39;79.15;98073.47;3561257;40;20127;-73
2021/07/13 05:29:44;;;;;;;9.70;8.70;;;;;;;19.43;79.37;98063.84;3560504;40;20111;-73
2021/07/13 05:32:12;;;;;;;10.30;9.30;;;;;;;19.45;78.79;98051.00;3560429;40;20042;-73
2021/07/13 05:34:42;;;;;;;10.27;8.50;;;;;;;19.38;79.22;98051.25;3559710;40;20435;-73
2021/07/13 05:37:11;;;;;;;9.77;8.88;;;;;;;19.45;79.22;98048.31;3560103;40;20110;-73
2021/07/13 05:39:40;;;;;;;11.65;10.13;;;;;;;19.54;79.06;98060.09;3560004;40;20050;-73
2021/07/13 05:42:10;;;;;;;13.88;10.48;;;;;;;19.53;79.18;98055.81;3560140;40;20049;-73
2021/07/13 05:44:38;;;;;;;11.32;10.18;;;;;;;19.55;79.00;98059.84;3560128;40;20042;-74
2021/07/13 05:47:06;;;;;;;12.82;9.95;;;;;;;19.50;78.84;98061.69;3559771;40;20065;-74
2021/07/13 05:49:33;;;;;;;16.00;11.23;;;;;;;19.51;78.87;98061.44;3559850;40;20069;-74
2021/07/13 05:52:01;;;;;;;11.45;9.93;;;;;;;19.59;78.63;98061.97;3558726;40;20054;-74
2021/07/13 05:54:29;;;;;;;11.13;10.02;;;;;;;19.61;78.88;98071.38;3560362;40;20170;-73
2021/07/13 05:56:59;;;;;;;13.75;10.55;;;;;;;19.63;78.65;98077.28;3560605;40;20029;-77
2021/07/13 05:59:27;;;;;;;11.48;9.43;;;;;;;19.61;78.72;98081.28;3559431;40;20034;-74
2021/07/13 06:01:55;;;;;;;12.88;10.85;;;;;;;19.60;78.97;98077.78;3560066;40;20058;-75
2021/07/13 06:04:23;;;;;;;11.27;9.18;;;;;;;19.54;78.83;98082.34;3560004;40;20030;-75
2021/07/13 06:06:51;;;;;;;12.50;10.73;;;;;;;19.48;78.85;98086.09;3560119;40;20082;-74
2021/07/13 06:09:19;;;;;;;10.32;9.10;;;;;;;19.47;79.26;98092.53;3559654;40;20037;-74
2021/07/13 06:11:46;;;;;;;12.07;10.38;;;;;;;19.45;79.52;98092.00;3559825;40;20108;-75
2021/07/13 06:14:16;;;;;;;12.63;11.05;;;;;;;19.43;79.05;98094.16;3559846;40;20062;-75
2021/07/13 06:17:01;;;;;;;12.25;10.75;;;;;;;19.42;79.25;98094.41;3558601;40;20395;-75
2021/07/13 06:19:28;;;;;;;11.65;10.45;;;;;;;19.39;79.32;98100.28;3559723;40;20034;-75
2021/07/13 06:21:56;;;;;;;10.73;9.63;;;;;;;19.35;79.32;98101.88;3559688;40;20026;-75
2021/07/13 06:24:24;;;;;;;12.05;9.85;;;;;;;19.38;79.28;98102.16;3608044;23;20042;-73
2021/07/13 06:26:52;;;;;;;10.57;9.48;;;;;;;19.33;79.52;98098.69;3578100;40;20104;-74
2021/07/13 06:29:21;;;;;;;11.15;8.88;;;;;;;19.29;79.17;98099.22;3574654;40;20021;-75
2021/07/13 06:31:49;;;;;;;10.15;9.20;;;;;;;19.30;79.51;98103.50;3574234;40;20033;-75
2021/07/13 06:34:18;;;;;;;9.38;8.57;;;;;;;19.33;79.70;98110.19;3574841;40;20065;-74
2021/07/13 06:36:45;;;;;;;10.07;9.07;;;;;;;19.34;79.69;98106.44;3574790;40;20026;-75
2021/07/13 06:39:14;;;;;;;10.18;9.10;;;;;;;19.28;79.96;98108.31;3574397;40;20041;-74
2021/07/13 06:41:41;;;;;;;9.85;8.85;;;;;;;19.27;79.72;98112.09;3574584;40;20058;-73
2021/07/13 06:44:10;;;;;;;8.85;8.00;;;;;;;19.32;80.00;98115.84;3574357;40;20021;-73
2021/07/13 06:46:39;;;;;;;8.52;7.55;;;;;;;19.36;79.32;98115.03;3574552;40;20049;-74
2021/07/13 06:49:07;;;;;;;11.10;7.57;;;;;;;19.30;79.40;98121.44;3574978;40;20034;-73
2021/07/13 06:51:35;;;;;;;8.10;7.10;;;;;;;19.28;79.27;98118.25;3574750;40;20052;-75
2021/07/13 06:54:03;;;;;;;7.85;7.00;;;;;;;19.24;79.52;98111.81;3574388;40;20401;-73
2021/07/13 06:56:31;;;;;;;7.85;6.82;;;;;;;19.20;79.35;98108.84;3574524;40;20036;-73
2021/07/13 06:58:58;;;;;;;8.38;7.10;;;;;;;19.21;79.58;98109.66;3574464;40;20034;-74
2021/07/13 07:01:26;;;;;;;7.00;6.07;;;;;;;19.16;79.32;98115.81;3573485;40;20038;-73
2021/07/13 07:03:55;;;;;;;7.97;7.18;;;;;;;19.10;79.47;98124.09;3574107;40;20088;-73
2021/07/13 07:06:23;;;;;;;8.05;7.35;;;;;;;19.04;79.67;98124.06;3574227;40;20045;-73
2021/07/13 07:08:50;;;;;;;7.80;7.00;;;;;;;18.97;79.75;98115.47;3574666;40;20029;-74
2021/07/13 07:11:18;;;;;;;7.20;6.50;;;;;;;19.06;80.16;98126.47;3575829;40;20152;-74
2021/07/13 07:13:46;;;;;;;7.05;6.35;;;;;;;19.11;79.90;98123.84;3575607;40;20036;-74
2021/07/13 07:16:14;;;;;;;10.32;6.55;;;;;;;19.08;79.98;98135.06;3575988;40;20267;-75
2021/07/13 07:18:41;;;;;;;7.85;6.07;;;;;;;19.10;79.72;98132.91;3573736;40;20025;-74
2021/07/13 07:21:11;;;;;;;6.35;5.85;;;;;;;19.07;79.79;98133.47;3573986;40;20064;-75
2021/07/13 07:23:39;;;;;;;6.93;5.78;;;;;;;19.16;80.23;98131.06;3575486;40;20050;-74
2021/07/13 07:26:07;;;;;;;7.00;5.80;;;;;;;19.24;79.76;98123.31;3575794;40;20114;-75
2021/07/13 07:28:35;;;;;;;6.93;5.63;;;;;;;19.29;79.46;98133.25;3575142;40;20036;-75
2021/07/13 07:31:03;;;;;;;5.82;5.32;;;;;;;19.33;79.59;98128.16;3575797;40;20026;-74
2021/07/13 07:33:31;;;;;;;5.40;4.90;;;;;;;19.24;79.43;98123.31;3573887;40;20056;-74
2021/07/13 07:35:59;;;;;;;5.35;4.85;;;;;;;19.13;79.35;98124.38;3565762;40;20306;-78
2021/07/13 07:38:28;;;;;;;3.95;3.65;;;;;;;19.04;79.45;98118.72;3574356;40;20379;-75
2021/07/13 07:40:56;;;;;;;4.40;4.00;;;;;;;19.04;79.81;98116.03;3574025;40;20025;-73
2021/07/13 07:43:23;;;;;;;5.25;3.92;;;;;;;19.01;79.79;98118.44;3565619;40;20033;-74
2021/07/13 07:45:51;;;;;;;3.60;3.30;;;;;;;18.98;79.59;98114.44;3574176;40;20037;-73
2021/07/13 07:48:19;;;;;;;3.50;3.20;;;;;;;18.97;79.55;98114.69;3574193;40;20034;-75
2021/07/13 07:50:47;;;;;;;4.03;3.03;;;;;;;18.83;79.50;98127.75;3574350;40;20022;-73
2021/07/13 07:53:14;;;;;;;3.30;3.00;;;;;;;18.75;80.13;98122.91;3574138;40;20037;-73
2021/07/13 07:55:44;;;;;;;3.72;3.42;;;;;;;18.76;80.04;98129.88;3574574;40;20017;-72
2021/07/13 07:58:12;;;;;;;2.92;2.63;;;;;;;18.77;80.22;98132.28;3566554;40;20030;-73
2021/07/13 08:00:42;;;;;;;2.53;2.38;;;;;;;18.76;80.14;98125.31;3574811;40;20033;-73
2021/07/13 08:03:11;;;;;;;6.70;2.53;;;;;;;18.81;80.21;98130.69;3573758;40;20327;-72
2021/07/13 08:05:40;;;;;;;3.20;2.83;;;;;;;18.82;80.22;98123.47;3573316;40;20077;-73
2021/07/13 08:08:08;;;;;;;3.22;2.92;;;;;;;18.85;80.32;98125.63;3575465;40;20107;-73
2021/07/13 08:10:36;;;;;;;4.50;3.53;;;;;;;18.76;79.91;98113.81;3575344;40;20083;-73
2021/07/13 08:13:05;;;;;;;5.43;3.28;;;;;;;18.78;80.57;98111.69;3575229;40;20041;-73
2021/07/13 08:15:33;;;;;;;3.85;3.10;;;;;;;18.77;80.41;98105.50;3575425;40;20057;-73
2021/07/13 08:18:01;;;;;;;4.05;3.35;;;;;;;18.73;80.51;98108.97;3575220;40;20310;-74
2021/07/13 08:20:28;;;;;;;4.50;3.55;;;;;;;18.82;80.52;98115.44;3575385;40;20029;-73
2021/07/13 08:23:00;;;;;;;6.25;3.72;;;;;;;18.85;80.92;98120.25;3575585;40;20345;-73
2021/07/13 08:25:28;;;;;;;5.13;3.58;;;;;;;18.84;81.03;98126.69;3575444;40;20030;-72
2021/07/13 08:27:57;;;;;;;4.07;3.10;;;;;;;18.93;80.69;98132.34;3575157;40;20046;-72
2021/07/13 08:30:27;;;;;;;5.45;3.63;;;;;;;18.87;80.75;98128.84;3572403;40;20049;-73
2021/07/13 08:32:55;;;;;;;5.68;3.30;;;;;;;18.83;80.86;98133.13;3575569;40;20048;-73
2021/07/13 08:35:23;;;;;;;4.07;2.88;;;;;;;18.78;80.85;98127.75;3575261;40;20115;-72
2021/07/13 08:37:52;;;;;;;5.18;3.50;;;;;;;18.84;80.58;98131.25;3575291;40;20038;-72
2021/07/13 08:40:19;;;;;;;4.32;3.35;;;;;;;18.90;80.44;98132.84;3574237;40;20092;-73
2021/07/13 08:42:47;;;;;;;7.28;3.28;;;;;;;18.99;80.62;98126.75;3574589;40;20041;-72
2021/07/13 08:45:17;;;;;;;3.47;2.55;;;;;;;19.05;80.05;98124.88;3574903;40;20398;-73
2021/07/13 08:47:48;;;;;;;3.03;2.60;;;;;;;19.11;79.68;98129.19;3573285;40;20028;-72
2021/07/13 08:50:18;;;;;;;4.05;2.95;;;;;;;19.23;79.97;98126.28;3573443;40;20073;-72
2021/07/13 08:52:46;;;;;;;5.50;2.92;;;;;;;19.37;78.79;98126.56;3574983;40;20055;-73
2021/07/13 08:55:15;;;;;;;3.10;2.30;;;;;;;19.45;78.85;98118.00;3574607;40;20107;-72
2021/07/13 08:57:44;;;;;;;4.90;3.08;;;;;;;19.62;78.97;98123.13;3574836;40;20037;-71
2021/07/13 09:00:15;;;;;;;3.65;2.97;;;;;;;19.58;78.45;98127.38;3573584;40;20057;-72
2021/07/13 09:03:07;;;;;;;5.15;2.63;;;;;;;19.55;78.47;98129.53;3574751;40;20054;-72
2021/07/13 09:05:44;;;;;;;3.53;2.20;;;;;;;19.55;78.31;98132.22;3574099;40;20053;-73
2021/07/13 09:08:14;;;;;;;2.20;2.00;;;;;;;19.60;78.40;98130.63;3574747;40;20042;-73
2021/07/13 09:10:59;;;;;;;2.05;1.90;;;;;;;19.71;78.23;98133.03;3575735;40;20066;-73
2021/07/13 09:13:30;;;;;;;1.52;1.42;;;;;;;19.65;77.58;98144.84;3575129;40;20510;-72
2021/07/13 09:15:59;;;;;;;2.55;1.70;;;;;;;19.53;77.78;98147.75;3574616;40;20026;-72
2021/07/13 09:18:33;;;;;;;2.08;1.70;;;;;;;19.59;78.14;98145.88;3574557;40;20045;-74
2021/07/13 09:21:09;;;;;;;3.15;1.90;;;;;;;19.54;77.76;98144.00;3573918;40;20032;-74
2021/07/13 09:23:58;;;;;;;1.65;1.55;;;;;;;19.54;77.30;98145.88;3574009;40;20049;-74
2021/07/13 09:26:36;;;;;;;3.90;1.98;;;;;;;19.50;77.49;98153.63;3574141;40;20049;-73
2021/07/13 09:29:04;;;;;;;2.05;1.95;;;;;;;19.33;77.56;98153.06;3573313;40;20046;-73
2021/07/13 09:31:32;;;;;;;2.53;2.00;;;;;;;19.34;78.21;98159.25;3573813;40;20045;-73
2021/07/13 09:34:02;;;;;;;2.50;2.30;;;;;;;19.29;77.64;98155.47;3572696;40;20029;-73
2021/07/13 09:36:30;;;;;;;3.75;2.25;;;;;;;19.21;77.92;98153.31;3573438;40;20089;-72
2021/07/13 09:38:57;;;;;;;2.33;2.13;;;;;;;19.20;78.19;98154.41;3573227;40;20399;-72
2021/07/13 09:41:28;;;;;;;2.80;2.60;;;;;;;19.19;78.14;98155.47;3573362;40;20107;-72
2021/07/13 09:44:00;;;;;;;3.30;2.38;;;;;;;19.19;78.08;98152.00;3572977;40;20056;-72
2021/07/13 09:46:30;;;;;;;3.15;2.60;;;;;;;19.13;78.15;98140.44;3573973;40;20111;-73
2021/07/13 09:49:15;;;;;;;3.97;2.90;;;;;;;19.04;78.52;98136.66;3574512;40;20029;-72
2021/07/13 09:51:45;;;;;;;2.78;2.50;;;;;;;19.00;78.93;98138.25;3574942;40;20113;-73
2021/07/13 09:54:32;;;;;;;3.08;2.88;;;;;;;19.04;78.89;98152.75;3575174;40;20332;-73
2021/07/13 09:57:01;;;;;;;3.05;2.83;;;;;;;19.02;79.00;98152.19;3574083;40;20281;-72
2021/07/13 09:59:29;;;;;;;4.55;3.05;;;;;;;18.97;78.65;98152.97;3574479;40;20038;-72
2021/07/13 10:01:57;;;;;;;4.60;2.28;;;;;;;18.86;78.38;98167.41;3574882;40;20070;-73
2021/07/13 10:04:27;;;;;;;2.10;2.00;;;;;;;18.74;78.71;98169.50;3573782;40;20306;-73
2021/07/13 10:06:56;;;;;;;2.53;2.33;;;;;;;18.76;78.95;98172.72;3573396;40;20069;-72
2021/07/13 10:09:29;;;;;;;3.22;2.90;;;;;;;18.67;79.33;98175.06;3572508;40;20326;-73
2021/07/13 10:11:57;;;;;;;2.50;2.30;;;;;;;18.65;79.19;98173.69;3573822;40;20307;-72
2021/07/13 10:14:25;;;;;;;1.85;1.75;;;;;;;18.62;79.11;98164.31;3573239;40;20042;-73
2021/07/13 10:16:54;;;;;;;3.40;1.98;;;;;;;18.61;79.27;98162.69;3574693;40;20338;-74
2021/07/13 10:19:23;;;;;;;2.55;2.35;;;;;;;18.68;79.15;98165.94;3574391;40;20022;-73
2021/07/13 10:21:52;;;;;;;1.90;1.80;;;;;;;18.68;79.04;98163.28;3574267;40;20334;-72
2021/07/13 10:24:24;;;;;;;2.10;1.90;;;;;;;18.65;78.65;98161.09;3573351;40;20042;-73
2021/07/13 10:26:54;;;;;;;1.88;1.70;;;;;;;18.55;78.76;98169.09;3574478;40;20081;-73
2021/07/13 10:29:44;;;;;;;2.70;2.17;;;;;;;18.55;78.83;98167.22;3575086;40;20030;-73
2021/07/13 10:32:33;;;;;;;1.70;1.60;;;;;;;18.51;79.32;98174.16;3574071;40;20041;-72
2021/07/13 10:35:04;;;;;;;2.05;1.73;;;;;;;18.39;79.40;98170.88;3573432;40;20330;-72
2021/07/13 10:37:35;;;;;;;2.53;2.20;;;;;;;18.34;79.50;98178.88;3574385;40;20057;-73
2021/07/13 10:40:07;;;;;;;1.92;1.80;;;;;;;18.24;79.55;98182.28;3574019;40;20048;-72
2021/07/13 10:42:50;;;;;;;1.98;1.77;;;;;;;18.20;80.07;98183.84;3573535;40;20081;-72
2021/07/13 10:45:24;;;;;;;3.00;1.95;;;;;;;18.23;79.89;98190.56;3574668;40;20061;-71
2021/07/13 10:47:56;;;;;;;;;;;;;;;18.22;80.13;98191.63;3575318;40;20093;-71
2021/07/13 10:50:52;;;;;;;1.92;1.77;;;;;;;18.34;80.09;98188.78;3574270;40;19933;-71
2021/07/13 10:53:24;;;;;;;3.38;1.25;;;;;;;18.33;79.71;98193.34;3574216;40;20078;-71
2021/07/13 10:55:54;;;;;;;1.35;1.13;;;;;;;18.25;79.46;98205.31;3573781;40;20053;-72
2021/07/13 10:58:27;;;;;;;1.10;1.00;;;;;;;18.34;79.04;98210.19;3575306;40;20081;-70
2021/07/13 11:01:14;;;;;;;1.02;0.90;;;;;;;18.18;78.91;98219.97;3574975;40;20549;-71
2021/07/13 11:03:59;;;;;;;1.10;1.00;;;;;;;18.12;79.35;98226.31;3574705;40;20127;-71
2021/07/13 11:07:00;;;;;;;2.53;1.23;;;;;;;18.02;79.42;98233.22;3574680;40;20056;-71
2021/07/13 11:09:39;;;;;;;2.10;1.50;;;;;;;18.00;79.10;98237.19;3574382;40;20331;-71
2021/07/13 11:12:15;;;;;;;1.20;0.80;;;;;;;17.96;79.12;98230.72;3575378;40;20050;-72
2021/07/13 11:15:00;;;;;;;1.40;0.70;;;;;;;17.93;79.46;98223.25;3575435;40;20319;-71
2021/07/13 11:17:30;;;;;;;4.35;0.80;;;;;;;17.94;79.59;98227.53;3574542;40;20060;-71
2021/07/13 11:20:14;;;;;;;0.88;0.63;;;;;;;17.95;80.05;98229.94;3574758;40;20049;-70
2021/07/13 11:22:44;;;;;;;1.10;0.70;;;;;;;17.89;79.35;98238.19;3574561;40;20060;-70
2021/07/13 11:25:24;;;;;;;0.55;0.55;;;;;;;17.93;79.60;98233.94;3574556;40;20061;-70
2021/07/13 11:28:06;;;;;;;0.65;0.50;;;;;;;17.89;79.25;98243.53;3575764;40;20085;-71
2021/07/13 11:30:35;;;;;;;1.85;1.70;;;;;;;17.88;79.06;98242.72;3573996;40;20052;-71
2021/07/13 11:33:07;;;;;;;1.40;0.52;;;;;;;17.79;79.39;98241.53;3574222;40;20477;-71
2021/07/13 11:35:38;;;;;;;0.93;0.70;;;;;;;17.82;79.40;98244.53;3574927;40;20485;-71
2021/07/13 11:38:07;;;;;;;2.50;1.10;;;;;;;17.73;79.37;98229.97;3575408;40;20056;-71
2021/07/13 11:40:36;;;;;;;1.10;0.85;;;;;;;17.73;78.86;98226.50;3575109;40;20062;-72
2021/07/13 11:43:04;;;;;;;1.98;0.90;;;;;;;17.83;79.27;98226.59;3574698;40;20052;-71
2021/07/13 11:45:32;;;;;;;0.70;0.70;;;;;;;17.95;78.92;98229.13;3572857;40;20060;-71